Plum Branch, SC (29845)

2:36 AM EST on December 29, 2014 (GMT -0500)
Plum Branch South Carolina | Change Station
CLOSE
Current Station
Personal Weather Station
Location: Plum Branch, SC
Elevation: 354 ft
Nearby Weather Stations

Elev 354 ft 33.81 °N, 82.31 °W | Updated 1 second ago

Rain
Rain
66.4 °F
Feels Like 66.4 °F
N
0.0
Wind Variable Wind from North
Gusts 0.0 mph

Today
High -- | Low -- °F
--% Chance of Precip.
Yesterday
High -- | Low -- °F
Precip. -- in
7:33 AM 5:29 PM
First Quarter, 56% visible
Pressure 30.07 in
Visibility 0.8 miles
Clouds Mostly Cloudy 700 ft
Overcast 1400 ft
Dew Point 66 °F
Humidity 98%
Rainfall 0.17 in
Snow Depth Not available.
UV 0 out of 12
Pollen .10 out of 12
Air Quality Not available.
Flu Activity Not available.
METAR KHQU 290715Z AUTO 00000KT 3/4SM BKN007 OVC014 16/16 A3007 RMK AO1 T01590159

More Conditions Fewer Conditions

Pressure 30.07 in
Visibility 0.8 miles
Clouds Mostly Cloudy 700 ft
Overcast 1400 ft
Dew Point 66 °F
Humidity 98%
Rainfall 0.17 in
Snow Depth Not available.
UV 0 out of 12
Pollen .10 out of 12
Air Quality Not available.
Flu Activity Not available.
METAR KHQU 290715Z AUTO 00000KT 3/4SM BKN007 OVC014 16/16 A3007 RMK AO1 T01590159

More Conditions Fewer Conditions

10-Day Weather Forecast

Almanac

Astronomy

Dec. 29, 2014 Rise Set
Actual Time
Civil Twilight
Nautical Twilight
Astronomical Twilight
Moon
Length of Visible Light
Length of Day
Tomorrow will be .
, % of the Moon is Illuminated

Today's Extremes

State Highs State Lows

Community

WunderPhotos

Upload Photos

1,781,547 photos uploaded!

WunderBlogs® & News

Nearby

Air Quality

  Air Quality AQ Index Pollutant
Not available.

Snow Depth

Station Depth Elevation

Earthquake Activity

City Distance Mag. Time & Date
Minimum magnitude displayed is 2.5.

Coastal Water Temperatures

Place Temperature

Nearby Weather Stations